Dn Vatan — TCZN6 — position and weather

sailwx.info

Track history (hours):
 
Tides and Currents Weather Stations Pressure Air Temp Water Temp Dewpoint Dewpoint Depression Visibility Wind Speed Wind Dir Waves Ship Positions

Dn Vatan

Last reported at 2016-Aug-28 15:19 UTC. Time now 2016-Aug-29 03:38 UTC.
Position N 21°02' E 110°53'.

Length 196 m; draft 6.6 m.

Type: Cargo ship. MMSI: 270991365.

Date/timePositionNaut miles runAvg speedWind from/ knotsBaromVisibWave heightAir tempDewpointWater temp
2016-Aug-28 15:19N 21°02' E 110°53'811.1
2016-Aug-28 14:33N 21°02' E 110°44'1110.9
2016-Aug-28 13:33N 21°05' E 110°32'8 7.9
2016-Aug-28 12:33N 21°08' E 110°25'2 2.1
2016-Aug-28 11:29N 21°10' E 110°24'0 0.0
2016-Aug-28 10:32N 21°10' E 110°24'0 0.0
2016-Aug-28 09:29N 21°10' E 110°24'0 0.0
2016-Aug-28 08:29N 21°10' E 110°24'0 0.0
2016-Aug-28 07:32N 21°10' E 110°24'0 0.0
2016-Aug-28 06:32N 21°10' E 110°24'0 0.0
2016-Aug-28 05:32N 21°10' E 110°24'0 0.0
2016-Aug-28 04:26N 21°10' E 110°24'0 0.0
2016-Aug-28 03:29N 21°10' E 110°24'0 0.0
2016-Aug-28 02:32N 21°10' E 110°24'0 0.0
2016-Aug-28 01:29N 21°10' E 110°24'0 0.0
2016-Aug-28 00:29N 21°10' E 110°24'0 0.0
2016-Aug-27 23:32N 21°10' E 110°24'0 0.0
2016-Aug-27 22:29N 21°10' E 110°24'0 0.0
2016-Aug-27 21:32N 21°10' E 110°24'0 0.0
2016-Aug-27 20:29N 21°10' E 110°24'0 0.0
2016-Aug-27 19:29N 21°10' E 110°24'0 0.0
2016-Aug-27 18:32N 21°10' E 110°24'0 0.0
2016-Aug-27 17:32N 21°10' E 110°24'0 0.0
2016-Aug-27 16:17N 21°10' E 110°24'0 0.0
2016-Aug-27 15:17N 21°10' E 110°24'0 0.0
2016-Aug-27 14:29N 21°10' E 110°24'0 0.0
2016-Aug-27 13:29N 21°10' E 110°24'0 0.0
2016-Aug-27 12:29N 21°10' E 110°24'0 0.0
2016-Aug-27 11:23N 21°10' E 110°24'0 0.0
2016-Aug-27 10:29N 21°10' E 110°24'0 0.0
2016-Aug-27 09:32N 21°10' E 110°24'0 0.0
2016-Aug-27 08:23N 21°10' E 110°24'0 0.0
2016-Aug-27 07:29N 21°10' E 110°24'0 0.0
2016-Aug-27 06:17N 21°10' E 110°24'0 0.0
2016-Aug-27 04:29N 21°10' E 110°24'0 0.0
2016-Aug-27 03:29N 21°10' E 110°24'0 0.0
2016-Aug-27 02:32N 21°10' E 110°24'0 0.0
2016-Aug-27 01:29N 21°10' E 110°24'0 0.0
2016-Aug-27 00:29N 21°10' E 110°24'0 0.0
2016-Aug-26 23:32N 21°10' E 110°24'0 0.0
2016-Aug-26 22:32N 21°10' E 110°24'0 0.0
2016-Aug-26 21:29N 21°10' E 110°24'0 0.0
2016-Aug-26 20:32N 21°10' E 110°24'0 0.0
2016-Aug-26 19:32N 21°10' E 110°24'0 0.0
2016-Aug-26 18:32N 21°10' E 110°24'0 0.0
2016-Aug-26 17:32N 21°10' E 110°24'0 0.0
2016-Aug-26 16:23N 21°10' E 110°24'0 0.0
2016-Aug-26 15:32N 21°10' E 110°24'0 0.0
2016-Aug-26 14:32N 21°10' E 110°24'0 0.0
2016-Aug-26 13:17N 21°10' E 110°24'0 0.0
2016-Aug-26 12:32N 21°10' E 110°24'0 0.0
2016-Aug-26 11:32N 21°10' E 110°24'0 0.0
2016-Aug-26 10:32N 21°10' E 110°24'0 0.0
2016-Aug-26 09:32N 21°10' E 110°24'0 0.0
2016-Aug-26 08:32N 21°10' E 110°24'0 0.0
2016-Aug-26 07:29N 21°10' E 110°24'0 0.0
2016-Aug-26 06:32N 21°10' E 110°24'0 0.0
2016-Aug-26 04:32N 21°10' E 110°24'0 0.0
2016-Aug-26 03:26N 21°10' E 110°24'0 0.0
2016-Aug-26 02:23N 21°10' E 110°24'0 0.0
2016-Aug-26 01:23N 21°10' E 110°24'0 0.0
2016-Aug-26 00:23N 21°10' E 110°24'0 0.0
2016-Aug-25 23:32N 21°10' E 110°24'0 0.0
2016-Aug-25 22:29N 21°10' E 110°24'0 0.0
2016-Aug-25 21:32N 21°10' E 110°24'0 0.0
2016-Aug-25 20:29N 21°10' E 110°24'0 0.0
2016-Aug-25 19:29N 21°10' E 110°24'0 0.0
2016-Aug-25 18:32N 21°10' E 110°24'0 0.0
2016-Aug-25 17:20N 21°10' E 110°24'0 0.0
2016-Aug-25 16:32N 21°10' E 110°24'0 0.0
2016-Aug-25 13:08N 21°10' E 110°24'0 0.0
2016-Aug-25 12:23N 21°10' E 110°24'0 0.0
2016-Aug-25 11:29N 21°10' E 110°24'0 0.0
2016-Aug-25 10:26N 21°10' E 110°24'0 0.0
2016-Aug-25 09:29N 21°10' E 110°24'0 0.0
2016-Aug-25 08:29N 21°10' E 110°24'3 3.3
2016-Aug-25 07:33N 21°07' E 110°25'6 6.4
2016-Aug-25 06:33N 21°05' E 110°32'14 7.1
2016-Aug-25 04:33N 21°02' E 110°47'9 8.8
2016-Aug-25 03:33N 20°59' E 110°55'  
Track history (hours):
 
Tides and Currents Weather Stations Pressure Air Temp Water Temp Dewpoint Dewpoint Depression Visibility Wind Speed Wind Dir Waves Ship Positions

Dn Vatan

Last reported at 2016-Aug-28 15:19 UTC. Time now 2016-Aug-29 03:38 UTC.
Position N 21°02' E 110°53'.

Length 196 m; draft 6.6 m.

Type: Cargo ship. MMSI: 270991365.

Date/timePositionNaut miles runAvg speedWind from/ knotsBaromVisibWave heightAir tempDewpointWater temp
2016-Aug-28 15:19N 21°02' E 110°53'811.1
2016-Aug-28 14:33N 21°02' E 110°44'1110.9
2016-Aug-28 13:33N 21°05' E 110°32'8 7.9
2016-Aug-28 12:33N 21°08' E 110°25'2 2.1
2016-Aug-28 11:29N 21°10' E 110°24'0 0.0
2016-Aug-28 10:32N 21°10' E 110°24'0 0.0
2016-Aug-28 09:29N 21°10' E 110°24'0 0.0
2016-Aug-28 08:29N 21°10' E 110°24'0 0.0
2016-Aug-28 07:32N 21°10' E 110°24'0 0.0
2016-Aug-28 06:32N 21°10' E 110°24'0 0.0
2016-Aug-28 05:32N 21°10' E 110°24'0 0.0
2016-Aug-28 04:26N 21°10' E 110°24'0 0.0
2016-Aug-28 03:29N 21°10' E 110°24'0 0.0
2016-Aug-28 02:32N 21°10' E 110°24'0 0.0
2016-Aug-28 01:29N 21°10' E 110°24'0 0.0
2016-Aug-28 00:29N 21°10' E 110°24'0 0.0
2016-Aug-27 23:32N 21°10' E 110°24'0 0.0
2016-Aug-27 22:29N 21°10' E 110°24'0 0.0
2016-Aug-27 21:32N 21°10' E 110°24'0 0.0
2016-Aug-27 20:29N 21°10' E 110°24'0 0.0
2016-Aug-27 19:29N 21°10' E 110°24'0 0.0
2016-Aug-27 18:32N 21°10' E 110°24'0 0.0
2016-Aug-27 17:32N 21°10' E 110°24'0 0.0
2016-Aug-27 16:17N 21°10' E 110°24'0 0.0
2016-Aug-27 15:17N 21°10' E 110°24'0 0.0
2016-Aug-27 14:29N 21°10' E 110°24'0 0.0
2016-Aug-27 13:29N 21°10' E 110°24'0 0.0
2016-Aug-27 12:29N 21°10' E 110°24'0 0.0
2016-Aug-27 11:23N 21°10' E 110°24'0 0.0
2016-Aug-27 10:29N 21°10' E 110°24'0 0.0
2016-Aug-27 09:32N 21°10' E 110°24'0 0.0
2016-Aug-27 08:23N 21°10' E 110°24'0 0.0
2016-Aug-27 07:29N 21°10' E 110°24'0 0.0
2016-Aug-27 06:17N 21°10' E 110°24'0 0.0
2016-Aug-27 04:29N 21°10' E 110°24'0 0.0
2016-Aug-27 03:29N 21°10' E 110°24'0 0.0
2016-Aug-27 02:32N 21°10' E 110°24'0 0.0
2016-Aug-27 01:29N 21°10' E 110°24'0 0.0
2016-Aug-27 00:29N 21°10' E 110°24'0 0.0
2016-Aug-26 23:32N 21°10' E 110°24'0 0.0
2016-Aug-26 22:32N 21°10' E 110°24'0 0.0
2016-Aug-26 21:29N 21°10' E 110°24'0 0.0
2016-Aug-26 20:32N 21°10' E 110°24'0 0.0
2016-Aug-26 19:32N 21°10' E 110°24'0 0.0
2016-Aug-26 18:32N 21°10' E 110°24'0 0.0
2016-Aug-26 17:32N 21°10' E 110°24'0 0.0
2016-Aug-26 16:23N 21°10' E 110°24'0 0.0
2016-Aug-26 15:32N 21°10' E 110°24'0 0.0
2016-Aug-26 14:32N 21°10' E 110°24'0 0.0
2016-Aug-26 13:17N 21°10' E 110°24'0 0.0
2016-Aug-26 12:32N 21°10' E 110°24'0 0.0
2016-Aug-26 11:32N 21°10' E 110°24'0 0.0
2016-Aug-26 10:32N 21°10' E 110°24'0 0.0
2016-Aug-26 09:32N 21°10' E 110°24'0 0.0
2016-Aug-26 08:32N 21°10' E 110°24'0 0.0
2016-Aug-26 07:29N 21°10' E 110°24'0 0.0
2016-Aug-26 06:32N 21°10' E 110°24'0 0.0
2016-Aug-26 04:32N 21°10' E 110°24'0 0.0
2016-Aug-26 03:26N 21°10' E 110°24'0 0.0
2016-Aug-26 02:23N 21°10' E 110°24'0 0.0
2016-Aug-26 01:23N 21°10' E 110°24'0 0.0
2016-Aug-26 00:23N 21°10' E 110°24'0 0.0
2016-Aug-25 23:32N 21°10' E 110°24'0 0.0
2016-Aug-25 22:29N 21°10' E 110°24'0 0.0
2016-Aug-25 21:32N 21°10' E 110°24'0 0.0
2016-Aug-25 20:29N 21°10' E 110°24'0 0.0
2016-Aug-25 19:29N 21°10' E 110°24'0 0.0
2016-Aug-25 18:32N 21°10' E 110°24'0 0.0
2016-Aug-25 17:20N 21°10' E 110°24'0 0.0
2016-Aug-25 16:32N 21°10' E 110°24'0 0.0
2016-Aug-25 13:08N 21°10' E 110°24'0 0.0
2016-Aug-25 12:23N 21°10' E 110°24'0 0.0
2016-Aug-25 11:29N 21°10' E 110°24'0 0.0
2016-Aug-25 10:26N 21°10' E 110°24'0 0.0
2016-Aug-25 09:29N 21°10' E 110°24'0 0.0
2016-Aug-25 08:29N 21°10' E 110°24'3 3.3
2016-Aug-25 07:33N 21°07' E 110°25'6 6.4
2016-Aug-25 06:33N 21°05' E 110°32'14 7.1
2016-Aug-25 04:33N 21°02' E 110°47'9 8.8
2016-Aug-25 03:33N 20°59' E 110°55'  

Dump ship's entire track history